Time,TemperatureF,DewpointF,PressureIn,WindDirection,WindDirectionDegrees,WindSpeedMPH,WindSpeedGustMPH,Humidity,HourlyPrecipIn,Conditions,Clouds,dailyrainin,SolarRadiationWatts/m^2,SoftwareType,DateUTC
2013-05-29 00:01:00,48.0,38.0,-100.00,ENE,60,5.0,7.0,67,0.00,,,0.00,1.000000,,2013-05-29 07:01:00,
2013-05-29 00:02:00,49.0,42.0,-100.00,WSW,241,1.0,7.0,78,0.01,,,0.01,1.000000,,2013-05-29 07:02:00,
2013-05-29 00:22:00,49.0,42.0,-100.00,WSW,241,1.0,7.0,78,0.01,,,0.01,1.000000,,2013-05-29 07:22:00,
2013-05-29 00:34:00,49.0,42.0,-100.00,WSW,241,1.0,7.0,78,0.01,,,0.01,1.000000,,2013-05-29 07:34:00,
2013-05-29 00:42:00,49.0,42.0,-100.00,WSW,241,1.0,7.0,78,0.01,,,0.01,1.000000,,2013-05-29 07:42:00,
2013-05-29 00:52:00,49.0,42.0,-100.00,WSW,241,1.0,7.0,78,0.01,,,0.01,1.000000,,2013-05-29 07:52:00,
2013-05-29 01:22:00,46.0,44.0,-100.00,SE,142,2.0,10.0,92,0.05,,,0.06,1.000000,,2013-05-29 08:22:00,
2013-05-29 01:32:00,46.0,44.0,-100.00,SE,142,2.0,10.0,92,0.05,,,0.06,1.000000,,2013-05-29 08:32:00,
2013-05-29 01:42:00,46.0,44.0,-100.00,SE,142,2.0,10.0,92,0.05,,,0.06,1.000000,,2013-05-29 08:42:00,
2013-05-29 01:52:00,46.0,44.0,-100.00,SE,142,2.0,10.0,92,0.05,,,0.06,1.000000,,2013-05-29 08:52:00,
2013-05-29 02:01:00,46.0,44.0,-100.00,SE,142,2.0,10.0,92,0.05,,,0.06,1.000000,,2013-05-29 09:01:00,
2013-05-29 02:02:00,46.0,44.0,-100.00,ENE,72,3.0,6.0,94,0.08,,,0.14,1.000000,,2013-05-29 09:02:00,
2013-05-29 02:22:00,46.0,44.0,-100.00,ENE,72,3.0,6.0,94,0.08,,,0.14,1.000000,,2013-05-29 09:22:00,
2013-05-29 02:33:00,46.0,44.0,-100.00,ENE,72,3.0,6.0,94,0.08,,,0.14,1.000000,,2013-05-29 09:33:00,
2013-05-29 02:42:00,46.0,44.0,-100.00,ENE,72,3.0,6.0,94,0.08,,,0.14,1.000000,,2013-05-29 09:42:00,
2013-05-29 02:52:00,46.0,44.0,-100.00,ENE,72,3.0,6.0,94,0.08,,,0.14,1.000000,,2013-05-29 09:52:00,
2013-05-29 03:02:00,46.0,44.0,-100.00,WSW,256,0.0,4.0,94,0.03,,,0.17,1.000000,,2013-05-29 10:02:00,
2013-05-29 03:22:00,46.0,44.0,-100.00,WSW,256,0.0,4.0,94,0.03,,,0.17,1.000000,,2013-05-29 10:22:00,
2013-05-29 03:33:00,46.0,44.0,-100.00,WSW,256,0.0,4.0,94,0.03,,,0.17,1.000000,,2013-05-29 10:33:00,
2013-05-29 03:42:00,46.0,44.0,-100.00,WSW,256,0.0,4.0,94,0.03,,,0.17,1.000000,,2013-05-29 10:42:00,
2013-05-29 03:53:00,46.0,44.0,-100.00,WSW,256,0.0,4.0,94,0.03,,,0.17,1.000000,,2013-05-29 10:53:00,
2013-05-29 04:22:00,46.0,45.0,-100.00,WSW,251,2.0,4.0,98,0.02,,,0.19,1.000000,,2013-05-29 11:22:00,
2013-05-29 04:32:00,46.0,45.0,-100.00,WSW,251,2.0,4.0,98,0.02,,,0.19,1.000000,,2013-05-29 11:32:00,
2013-05-29 04:42:00,46.0,45.0,-100.00,WSW,251,2.0,4.0,98,0.02,,,0.19,1.000000,,2013-05-29 11:42:00,
2013-05-29 04:52:00,46.0,45.0,-100.00,WSW,251,2.0,4.0,98,0.02,,,0.19,1.000000,,2013-05-29 11:52:00,
2013-05-29 05:01:00,46.0,45.0,-100.00,WSW,251,2.0,4.0,98,0.02,,,0.19,1.000000,,2013-05-29 12:01:00,
2013-05-29 05:22:00,48.0,45.0,-100.00,SW,222,7.0,11.0,89,0.00,,,0.19,1.000000,,2013-05-29 12:22:00,
2013-05-29 05:32:00,48.0,45.0,-100.00,SW,222,7.0,11.0,89,0.00,,,0.19,1.000000,,2013-05-29 12:32:00,
2013-05-29 05:42:00,48.0,45.0,-100.00,SW,222,7.0,11.0,89,0.00,,,0.19,1.000000,,2013-05-29 12:42:00,
2013-05-29 05:52:00,48.0,45.0,-100.00,SW,222,7.0,11.0,89,0.00,,,0.19,1.000000,,2013-05-29 12:52:00,
2013-05-29 06:01:00,48.0,45.0,-100.00,SW,222,7.0,11.0,89,0.00,,,0.19,1.000000,,2013-05-29 13:01:00,
2013-05-29 06:22:00,46.0,42.0,-100.00,SW,214,9.0,20.0,87,0.01,,,0.20,8.000000,,2013-05-29 13:22:00,
2013-05-29 06:32:00,46.0,42.0,-100.00,SW,214,9.0,20.0,87,0.01,,,0.20,8.000000,,2013-05-29 13:32:00,
2013-05-29 06:42:00,46.0,42.0,-100.00,SW,214,9.0,20.0,87,0.01,,,0.20,8.000000,,2013-05-29 13:42:00,
2013-05-29 06:53:00,46.0,42.0,-100.00,SW,214,9.0,20.0,87,0.01,,,0.20,8.000000,,2013-05-29 13:53:00,
2013-05-29 07:01:00,46.0,42.0,-100.00,SW,214,9.0,20.0,87,0.01,,,0.20,8.000000,,2013-05-29 14:01:00,
2013-05-29 07:22:00,47.0,41.0,-100.00,SSE,148,5.0,9.0,79,0.00,,,0.20,63.000000,,2013-05-29 14:22:00,
2013-05-29 07:32:00,47.0,41.0,-100.00,SSE,148,5.0,9.0,79,0.00,,,0.20,63.000000,,2013-05-29 14:32:00,
2013-05-29 07:42:00,47.0,41.0,-100.00,SSE,148,5.0,9.0,79,0.00,,,0.20,63.000000,,2013-05-29 14:42:00,
2013-05-29 07:52:00,47.0,41.0,-100.00,SSE,148,5.0,9.0,79,0.00,,,0.20,63.000000,,2013-05-29 14:52:00,
2013-05-29 08:01:00,47.0,41.0,-100.00,SSE,148,5.0,9.0,79,0.00,,,0.20,63.000000,,2013-05-29 15:01:00,
2013-05-29 08:02:00,49.0,40.0,-100.00,SSW,195,6.0,14.0,72,0.00,,,0.20,75.000000,,2013-05-29 15:02:00,
2013-05-29 08:22:00,49.0,40.0,-100.00,SSW,195,6.0,14.0,72,0.00,,,0.20,75.000000,,2013-05-29 15:22:00,
2013-05-29 08:33:00,49.0,40.0,-100.00,SSW,195,6.0,14.0,72,0.00,,,0.20,75.000000,,2013-05-29 15:33:00,
2013-05-29 08:42:00,49.0,40.0,-100.00,SSW,195,6.0,14.0,72,0.00,,,0.20,75.000000,,2013-05-29 15:42:00,
2013-05-29 08:53:00,49.0,40.0,-100.00,SSW,195,6.0,14.0,72,0.00,,,0.20,75.000000,,2013-05-29 15:53:00,
2013-05-29 09:02:00,52.0,41.0,-100.00,WSW,240,17.0,26.0,67,0.00,,,0.20,232.000000,,2013-05-29 16:02:00,
2013-05-29 09:22:00,52.0,41.0,-100.00,WSW,240,17.0,26.0,67,0.00,,,0.20,232.000000,,2013-05-29 16:22:00,
2013-05-29 09:33:00,52.0,41.0,-100.00,WSW,240,17.0,26.0,67,0.00,,,0.20,232.000000,,2013-05-29 16:33:00,
2013-05-29 09:42:00,52.0,41.0,-100.00,WSW,240,17.0,26.0,67,0.00,,,0.20,232.000000,,2013-05-29 16:42:00,
2013-05-29 09:52:00,52.0,41.0,-100.00,WSW,240,17.0,26.0,67,0.00,,,0.20,232.000000,,2013-05-29 16:52:00,
2013-05-29 10:22:00,54.0,41.0,-100.00,WSW,248,19.0,33.0,61,0.00,,,0.20,604.000000,,2013-05-29 17:22:00,
2013-05-29 10:32:00,54.0,41.0,-100.00,WSW,248,19.0,33.0,61,0.00,,,0.20,604.000000,,2013-05-29 17:32:00,
2013-05-29 10:42:00,54.0,41.0,-100.00,WSW,248,19.0,33.0,61,0.00,,,0.20,604.000000,,2013-05-29 17:42:00,
2013-05-29 10:52:00,54.0,41.0,-100.00,WSW,248,19.0,33.0,61,0.00,,,0.20,604.000000,,2013-05-29 17:52:00,
2013-05-29 11:01:00,54.0,41.0,-100.00,WSW,248,19.0,33.0,61,0.00,,,0.20,604.000000,,2013-05-29 18:01:00,
2013-05-29 11:22:00,55.0,40.0,-100.00,WSW,251,23.0,39.0,56,0.00,,,0.20,857.000000,,2013-05-29 18:22:00,
2013-05-29 11:32:00,55.0,40.0,-100.00,WSW,251,23.0,39.0,56,0.00,,,0.20,857.000000,,2013-05-29 18:32:00,
2013-05-29 11:42:00,55.0,40.0,-100.00,WSW,251,23.0,39.0,56,0.00,,,0.20,857.000000,,2013-05-29 18:42:00,
2013-05-29 11:52:00,55.0,40.0,-100.00,WSW,251,23.0,39.0,56,0.00,,,0.20,857.000000,,2013-05-29 18:52:00,
2013-05-29 12:01:00,55.0,40.0,-100.00,WSW,251,23.0,39.0,56,0.00,,,0.20,857.000000,,2013-05-29 19:01:00,
2013-05-29 12:02:00,54.0,39.0,-100.00,WSW,245,12.0,33.0,56,0.00,,,0.20,546.000000,,2013-05-29 19:02:00,
2013-05-29 12:22:00,54.0,39.0,-100.00,WSW,245,12.0,33.0,56,0.00,,,0.20,546.000000,,2013-05-29 19:22:00,
2013-05-29 12:32:00,54.0,39.0,-100.00,WSW,245,12.0,33.0,56,0.00,,,0.20,546.000000,,2013-05-29 19:32:00,
2013-05-29 12:44:00,54.0,39.0,-100.00,WSW,245,12.0,33.0,56,0.00,,,0.20,546.000000,,2013-05-29 19:44:00,
2013-05-29 12:53:00,54.0,39.0,-100.00,WSW,245,12.0,33.0,56,0.00,,,0.20,546.000000,,2013-05-29 19:53:00,
2013-05-29 13:02:00,56.0,39.0,-100.00,WSW,255,21.0,32.0,52,0.00,,,0.20,472.000000,,2013-05-29 20:02:00,
2013-05-29 13:23:00,56.0,39.0,-100.00,WSW,255,21.0,32.0,52,0.00,,,0.20,472.000000,,2013-05-29 20:23:00,
2013-05-29 13:33:00,56.0,39.0,-100.00,WSW,255,21.0,32.0,52,0.00,,,0.20,472.000000,,2013-05-29 20:33:00,
2013-05-29 13:42:00,56.0,39.0,-100.00,WSW,255,21.0,32.0,52,0.00,,,0.20,472.000000,,2013-05-29 20:42:00,
2013-05-29 13:52:00,56.0,39.0,-100.00,WSW,255,21.0,32.0,52,0.00,,,0.20,472.000000,,2013-05-29 20:52:00,
2013-05-29 14:02:00,57.0,39.0,-100.00,West,269,21.0,32.0,50,0.00,,,0.20,988.000000,,2013-05-29 21:02:00,
2013-05-29 14:22:00,57.0,39.0,-100.00,West,269,21.0,32.0,50,0.00,,,0.20,988.000000,,2013-05-29 21:22:00,
2013-05-29 14:33:00,57.0,39.0,-100.00,West,269,21.0,32.0,50,0.00,,,0.20,988.000000,,2013-05-29 21:33:00,
2013-05-29 14:44:00,57.0,39.0,-100.00,West,269,21.0,32.0,50,0.00,,,0.20,988.000000,,2013-05-29 21:44:00,
2013-05-29 14:53:00,57.0,39.0,-100.00,West,269,21.0,32.0,50,0.00,,,0.20,988.000000,,2013-05-29 21:53:00,
2013-05-29 15:02:00,59.0,37.0,-100.00,West,262,22.0,34.0,44,0.00,,,0.20,1010.000000,,2013-05-29 22:02:00,
2013-05-29 15:23:00,59.0,37.0,-100.00,West,262,22.0,34.0,44,0.00,,,0.20,1010.000000,,2013-05-29 22:23:00,
2013-05-29 15:34:00,59.0,37.0,-100.00,West,262,22.0,34.0,44,0.00,,,0.20,1010.000000,,2013-05-29 22:34:00,
2013-05-29 15:42:00,59.0,37.0,-100.00,West,262,22.0,34.0,44,0.00,,,0.20,1010.000000,,2013-05-29 22:42:00,
2013-05-29 15:53:00,59.0,37.0,-100.00,West,262,22.0,34.0,44,0.00,,,0.20,1010.000000,,2013-05-29 22:53:00,
2013-05-29 16:22:00,57.0,38.0,-100.00,WSW,252,18.0,33.0,49,0.00,,,0.20,908.000000,,2013-05-29 23:22:00,
2013-05-29 16:33:00,57.0,38.0,-100.00,WSW,252,18.0,33.0,49,0.00,,,0.20,908.000000,,2013-05-29 23:33:00,
2013-05-29 16:42:00,57.0,38.0,-100.00,WSW,252,18.0,33.0,49,0.00,,,0.20,908.000000,,2013-05-29 23:42:00,
2013-05-29 16:53:00,57.0,38.0,-100.00,WSW,252,18.0,33.0,49,0.00,,,0.20,908.000000,,2013-05-29 23:53:00,
2013-05-29 17:01:00,57.0,38.0,-100.00,WSW,252,18.0,33.0,49,0.00,,,0.20,908.000000,,2013-05-30 00:01:00,
2013-05-29 17:22:00,54.0,38.0,-100.00,West,281,17.0,27.0,55,0.00,,,0.20,583.000000,,2013-05-30 00:22:00,
2013-05-29 17:32:00,54.0,38.0,-100.00,West,281,17.0,27.0,55,0.00,,,0.20,583.000000,,2013-05-30 00:32:00,
2013-05-29 17:42:00,54.0,38.0,-100.00,West,281,17.0,27.0,55,0.00,,,0.20,583.000000,,2013-05-30 00:42:00,
2013-05-29 17:52:00,54.0,38.0,-100.00,West,281,17.0,27.0,55,0.00,,,0.20,583.000000,,2013-05-30 00:52:00,
2013-05-29 18:01:00,54.0,38.0,-100.00,West,281,17.0,27.0,55,0.00,,,0.20,583.000000,,2013-05-30 01:01:00,
2013-05-29 18:22:00,53.0,38.0,-100.00,West,264,15.0,27.0,57,0.00,,,0.20,343.000000,,2013-05-30 01:22:00,
2013-05-29 18:32:00,53.0,38.0,-100.00,West,264,15.0,27.0,57,0.00,,,0.20,343.000000,,2013-05-30 01:32:00,
2013-05-29 18:42:00,53.0,38.0,-100.00,West,264,15.0,27.0,57,0.00,,,0.20,343.000000,,2013-05-30 01:42:00,
2013-05-29 18:52:00,53.0,38.0,-100.00,West,264,15.0,27.0,57,0.00,,,0.20,343.000000,,2013-05-30 01:52:00,
2013-05-29 19:01:00,53.0,38.0,-100.00,West,264,15.0,27.0,57,0.00,,,0.20,343.000000,,2013-05-30 02:01:00,
2013-05-29 19:22:00,51.0,37.0,-100.00,WSW,250,12.0,22.0,59,0.00,,,0.20,159.000000,,2013-05-30 02:22:00,
2013-05-29 19:32:00,51.0,37.0,-100.00,WSW,250,12.0,22.0,59,0.00,,,0.20,159.000000,,2013-05-30 02:32:00,
2013-05-29 19:42:00,51.0,37.0,-100.00,WSW,250,12.0,22.0,59,0.00,,,0.20,159.000000,,2013-05-30 02:42:00,
2013-05-29 19:52:00,51.0,37.0,-100.00,WSW,250,12.0,22.0,59,0.00,,,0.20,159.000000,,2013-05-30 02:52:00,
2013-05-29 20:01:00,51.0,37.0,-100.00,WSW,250,12.0,22.0,59,0.00,,,0.20,159.000000,,2013-05-30 03:01:00,
2013-05-29 20:02:00,51.0,39.0,-100.00,WSW,257,11.0,25.0,63,0.00,,,0.20,93.000000,,2013-05-30 03:02:00,
2013-05-29 20:21:00,51.0,39.0,-100.00,WSW,257,11.0,25.0,63,0.00,,,0.20,93.000000,,2013-05-30 03:21:00,
2013-05-29 20:33:00,51.0,39.0,-100.00,WSW,257,11.0,25.0,63,0.00,,,0.20,93.000000,,2013-05-30 03:33:00,
2013-05-29 20:43:00,51.0,39.0,-100.00,WSW,257,11.0,25.0,63,0.00,,,0.20,93.000000,,2013-05-30 03:43:00,
2013-05-29 20:53:00,51.0,39.0,-100.00,WSW,257,11.0,25.0,63,0.00,,,0.20,93.000000,,2013-05-30 03:53:00,
2013-05-29 21:02:00,48.0,37.0,-100.00,WSW,240,8.0,16.0,65,0.00,,,0.20,11.000000,,2013-05-30 04:02:00,
2013-05-29 21:23:00,48.0,37.0,-100.00,WSW,240,8.0,16.0,65,0.00,,,0.20,11.000000,,2013-05-30 04:23:00,
2013-05-29 21:33:00,48.0,37.0,-100.00,WSW,240,8.0,16.0,65,0.00,,,0.20,11.000000,,2013-05-30 04:33:00,
2013-05-29 21:42:00,48.0,37.0,-100.00,WSW,240,8.0,16.0,65,0.00,,,0.20,11.000000,,2013-05-30 04:42:00,
2013-05-29 21:53:00,48.0,37.0,-100.00,WSW,240,8.0,16.0,65,0.00,,,0.20,11.000000,,2013-05-30 04:53:00,
2013-05-29 22:22:00,46.0,37.0,-100.00,SW,229,6.0,18.0,72,0.00,,,0.20,1.000000,,2013-05-30 05:22:00,
2013-05-29 22:32:00,46.0,37.0,-100.00,SW,229,6.0,18.0,72,0.00,,,0.20,1.000000,,2013-05-30 05:32:00,
2013-05-29 22:42:00,46.0,37.0,-100.00,SW,229,6.0,18.0,72,0.00,,,0.20,1.000000,,2013-05-30 05:42:00,
2013-05-29 22:52:00,46.0,37.0,-100.00,SW,229,6.0,18.0,72,0.00,,,0.20,1.000000,,2013-05-30 05:52:00,
2013-05-29 23:01:00,46.0,37.0,-100.00,SW,229,6.0,18.0,72,0.00,,,0.20,1.000000,,2013-05-30 06:01:00,
2013-05-29 23:22:00,45.0,35.0,-100.00,SW,235,9.0,14.0,69,0.00,,,0.20,1.000000,,2013-05-30 06:22:00,
2013-05-29 23:32:00,45.0,35.0,-100.00,SW,235,9.0,14.0,69,0.00,,,0.20,1.000000,,2013-05-30 06:32:00,
2013-05-29 23:42:00,45.0,35.0,-100.00,SW,235,9.0,14.0,69,0.00,,,0.20,1.000000,,2013-05-30 06:42:00,
2013-05-29 23:52:00,45.0,35.0,-100.00,SW,235,9.0,14.0,69,0.00,,,0.20,1.000000,,2013-05-30 06:52:00,